sensor_id;sensor_type;location;lat;lon;timestamp;pressure;altitude;pressure_sealevel;temperature;humidity
47726;BME280;33483;48.294;16.388;2022-12-18T00:03:53;101135.28;;;-2.99;100.00
47726;BME280;33483;48.294;16.388;2022-12-18T00:06:22;101133.81;;;-3.11;100.00
47726;BME280;33483;48.294;16.388;2022-12-18T00:08:49;101129.19;;;-3.17;100.00
47726;BME280;33483;48.294;16.388;2022-12-18T00:11:20;101129.28;;;-3.31;100.00
47726;BME280;33483;48.294;16.388;2022-12-18T00:13:51;101142.47;;;-3.37;100.00
47726;BME280;33483;48.294;16.388;2022-12-18T00:16:21;101142.91;;;-3.49;100.00
47726;BME280;33483;48.294;16.388;2022-12-18T00:18:50;101149.09;;;-3.56;100.00
47726;BME280;33483;48.294;16.388;2022-12-18T00:21:18;101149.13;;;-3.63;100.00
47726;BME280;33483;48.294;16.388;2022-12-18T00:23:47;101143.75;;;-3.70;100.00
47726;BME280;33483;48.294;16.388;2022-12-18T00:26:20;101146.47;;;-3.66;100.00
47726;BME280;33483;48.294;16.388;2022-12-18T00:28:50;101147.25;;;-3.80;100.00
47726;BME280;33483;48.294;16.388;2022-12-18T00:31:21;101153.44;;;-3.79;100.00
47726;BME280;33483;48.294;16.388;2022-12-18T00:33:49;101158.47;;;-3.81;100.00
47726;BME280;33483;48.294;16.388;2022-12-18T00:36:23;101159.25;;;-3.84;100.00
47726;BME280;33483;48.294;16.388;2022-12-18T00:38:51;101170.50;;;-3.86;100.00
47726;BME280;33483;48.294;16.388;2022-12-18T00:41:20;101168.19;;;-3.91;100.00
47726;BME280;33483;48.294;16.388;2022-12-18T00:44:18;101160.81;;;-3.90;100.00
47726;BME280;33483;48.294;16.388;2022-12-18T00:46:46;101159.66;;;-3.93;100.00
47726;BME280;33483;48.294;16.388;2022-12-18T00:49:18;101163.16;;;-3.99;100.00
47726;BME280;33483;48.294;16.388;2022-12-18T00:51:46;101169.75;;;-4.07;100.00
47726;BME280;33483;48.294;16.388;2022-12-18T00:54:14;101165.91;;;-4.17;100.00
47726;BME280;33483;48.294;16.388;2022-12-18T00:56:42;101172.06;;;-4.23;100.00
47726;BME280;33483;48.294;16.388;2022-12-18T00:59:17;101173.63;;;-4.26;100.00
47726;BME280;33483;48.294;16.388;2022-12-18T01:01:46;101179.44;;;-4.06;100.00
47726;BME280;33483;48.294;16.388;2022-12-18T01:04:14;101182.88;;;-4.02;100.00
47726;BME280;33483;48.294;16.388;2022-12-18T01:06:45;101187.53;;;-4.06;100.00
47726;BME280;33483;48.294;16.388;2022-12-18T01:09:12;101189.47;;;-4.10;100.00
47726;BME280;33483;48.294;16.388;2022-12-18T01:11:40;101185.59;;;-4.16;100.00
47726;BME280;33483;48.294;16.388;2022-12-18T01:14:07;101186.38;;;-4.19;100.00
47726;BME280;33483;48.294;16.388;2022-12-18T01:16:37;101186.78;;;-4.24;100.00
47726;BME280;33483;48.294;16.388;2022-12-18T01:19:04;101189.47;;;-4.28;100.00
47726;BME280;33483;48.294;16.388;2022-12-18T01:21:32;101189.09;;;-4.26;100.00
47726;BME280;33483;48.294;16.388;2022-12-18T01:24:03;101187.56;;;-4.20;100.00
47726;BME280;33483;48.294;16.388;2022-12-18T01:26:31;101184.06;;;-4.28;100.00
47726;BME280;33483;48.294;16.388;2022-12-18T01:29:00;101186.78;;;-4.24;100.00
47726;BME280;33483;48.294;16.388;2022-12-18T01:31:30;101190.25;;;-4.34;100.00
47726;BME280;33483;48.294;16.388;2022-12-18T01:34:00;101201.47;;;-4.36;100.00
47726;BME280;33483;48.294;16.388;2022-12-18T01:36:30;101189.47;;;-4.35;100.00
47726;BME280;33483;48.294;16.388;2022-12-18T01:39:00;101199.53;;;-4.35;100.00
47726;BME280;33483;48.294;16.388;2022-12-18T01:41:29;101200.69;;;-4.43;100.00
47726;BME280;33483;48.294;16.388;2022-12-18T01:50:14;101207.63;;;-4.46;100.00
47726;BME280;33483;48.294;16.388;2022-12-18T01:52:46;101206.88;;;-4.53;100.00
47726;BME280;33483;48.294;16.388;2022-12-18T01:55:17;101211.09;;;-4.52;100.00
47726;BME280;33483;48.294;16.388;2022-12-18T01:57:49;101202.22;;;-4.57;100.00
47726;BME280;33483;48.294;16.388;2022-12-18T02:00:23;101212.25;;;-4.64;100.00
47726;BME280;33483;48.294;16.388;2022-12-18T02:02:51;101211.47;;;-4.72;100.00
47726;BME280;33483;48.294;16.388;2022-12-18T02:05:30;101208.34;;;-4.84;100.00
47726;BME280;33483;48.294;16.388;2022-12-18T02:08:23;101208.34;;;-4.88;100.00
47726;BME280;33483;48.294;16.388;2022-12-18T02:19:05;101215.25;;;-5.01;100.00
47726;BME280;33483;48.294;16.388;2022-12-18T02:24:27;101216.41;;;-4.98;100.00
47726;BME280;33483;48.294;16.388;2022-12-18T02:26:59;101217.19;;;-4.98;100.00
47726;BME280;33483;48.294;16.388;2022-12-18T02:29:50;101228.38;;;-5.03;100.00
47726;BME280;33483;48.294;16.388;2022-12-18T02:32:27;101233.78;;;-4.99;100.00
47726;BME280;33483;48.294;16.388;2022-12-18T02:34:57;101239.22;;;-4.96;100.00
47726;BME280;33483;48.294;16.388;2022-12-18T02:37:28;101233.81;;;-4.92;100.00
47726;BME280;33483;48.294;16.388;2022-12-18T02:40:00;101237.63;;;-5.00;100.00
47726;BME280;33483;48.294;16.388;2022-12-18T02:42:32;101235.31;;;-5.05;100.00
47726;BME280;33483;48.294;16.388;2022-12-18T02:45:04;101233.75;;;-5.10;100.00
47726;BME280;33483;48.294;16.388;2022-12-18T02:47:38;101241.09;;;-5.07;100.00
47726;BME280;33483;48.294;16.388;2022-12-18T02:56:01;101257.66;;;-5.19;100.00
47726;BME280;33483;48.294;16.388;2022-12-18T03:01:26;101252.97;;;-5.29;100.00
47726;BME280;33483;48.294;16.388;2022-12-18T03:04:01;101262.97;;;-5.33;100.00
47726;BME280;33483;48.294;16.388;2022-12-18T03:06:39;101264.53;;;-5.35;100.00
47726;BME280;33483;48.294;16.388;2022-12-18T03:09:15;101251.03;;;-5.32;100.00
47726;BME280;33483;48.294;16.388;2022-12-18T03:11:53;101250.63;;;-5.37;100.00
47726;BME280;33483;48.294;16.388;2022-12-18T03:14:40;101242.91;;;-5.39;100.00
47726;BME280;33483;48.294;16.388;2022-12-18T03:17:13;101238.28;;;-5.31;100.00
47726;BME280;33483;48.294;16.388;2022-12-18T03:19:42;101239.84;;;-5.34;100.00
47726;BME280;33483;48.294;16.388;2022-12-18T03:22:11;101242.94;;;-5.32;100.00
47726;BME280;33483;48.294;16.388;2022-12-18T03:24:45;101245.28;;;-5.27;100.00
47726;BME280;33483;48.294;16.388;2022-12-18T03:27:18;101239.09;;;-5.27;100.00
47726;BME280;33483;48.294;16.388;2022-12-18T03:29:52;101246.34;;;-5.38;100.00
47726;BME280;33483;48.294;16.388;2022-12-18T03:32:29;101242.09;;;-5.43;100.00
47726;BME280;33483;48.294;16.388;2022-12-18T03:35:02;101243.63;;;-5.42;100.00
47726;BME280;33483;48.294;16.388;2022-12-18T03:37:35;101249.75;;;-5.52;100.00
47726;BME280;33483;48.294;16.388;2022-12-18T03:40:03;101253.59;;;-5.56;100.00
47726;BME280;33483;48.294;16.388;2022-12-18T03:42:51;101245.47;;;-5.60;100.00
47726;BME280;33483;48.294;16.388;2022-12-18T03:45:28;101248.91;;;-5.63;100.00
47726;BME280;33483;48.294;16.388;2022-12-18T03:48:06;101250.47;;;-5.62;100.00
47726;BME280;33483;48.294;16.388;2022-12-18T03:53:37;101255.44;;;-5.67;100.00
47726;BME280;33483;48.294;16.388;2022-12-18T03:56:08;101257.72;;;-5.73;100.00
47726;BME280;33483;48.294;16.388;2022-12-18T03:58:40;101264.28;;;-5.74;100.00
47726;BME280;33483;48.294;16.388;2022-12-18T04:01:25;101271.22;;;-5.73;100.00
47726;BME280;33483;48.294;16.388;2022-12-18T04:03:58;101263.47;;;-5.78;100.00
47726;BME280;33483;48.294;16.388;2022-12-18T04:06:32;101268.06;;;-5.86;100.00
47726;BME280;33483;48.294;16.388;2022-12-18T04:09:01;101268.03;;;-5.89;100.00
47726;BME280;33483;48.294;16.388;2022-12-18T04:11:30;101280.41;;;-5.88;100.00
47726;BME280;33483;48.294;16.388;2022-12-18T04:13:59;101278.47;;;-5.91;100.00
47726;BME280;33483;48.294;16.388;2022-12-18T04:16:31;101278.09;;;-5.90;100.00
47726;BME280;33483;48.294;16.388;2022-12-18T04:19:03;101275.75;;;-5.91;100.00
47726;BME280;33483;48.294;16.388;2022-12-18T04:21:36;101275.38;;;-5.90;100.00
47726;BME280;33483;48.294;16.388;2022-12-18T04:24:07;101274.19;;;-5.92;100.00
47726;BME280;33483;48.294;16.388;2022-12-18T04:26:38;101279.91;;;-6.01;100.00
47726;BME280;33483;48.294;16.388;2022-12-18T04:29:16;101283.03;;;-5.99;100.00
47726;BME280;33483;48.294;16.388;2022-12-18T04:31:43;101288.38;;;-6.02;100.00
47726;BME280;33483;48.294;16.388;2022-12-18T04:34:11;101299.22;;;-5.99;100.00
47726;BME280;33483;48.294;16.388;2022-12-18T04:36:49;101301.53;;;-5.97;100.00
47726;BME280;33483;48.294;16.388;2022-12-18T04:39:17;101307.28;;;-6.02;100.00
47726;BME280;33483;48.294;16.388;2022-12-18T04:41:47;101302.28;;;-6.00;100.00
47726;BME280;33483;48.294;16.388;2022-12-18T04:44:15;101308.06;;;-6.02;100.00
47726;BME280;33483;48.294;16.388;2022-12-18T04:46:43;101306.88;;;-6.04;100.00
47726;BME280;33483;48.294;16.388;2022-12-18T04:49:13;101309.16;;;-6.06;100.00
47726;BME280;33483;48.294;16.388;2022-12-18T04:51:40;101300.25;;;-6.14;100.00
47726;BME280;33483;48.294;16.388;2022-12-18T04:54:07;101298.72;;;-6.11;100.00
47726;BME280;33483;48.294;16.388;2022-12-18T04:56:34;101306.41;;;-6.13;100.00
47726;BME280;33483;48.294;16.388;2022-12-18T04:59:02;101311.06;;;-6.10;100.00
47726;BME280;33483;48.294;16.388;2022-12-18T05:01:29;101311.44;;;-6.08;100.00
47726;BME280;33483;48.294;16.388;2022-12-18T05:04:03;101326.84;;;-6.12;100.00
47726;BME280;33483;48.294;16.388;2022-12-18T05:06:30;101327.22;;;-6.14;100.00
47726;BME280;33483;48.294;16.388;2022-12-18T05:08:58;101334.91;;;-6.16;100.00
47726;BME280;33483;48.294;16.388;2022-12-18T05:11:25;101337.22;;;-6.14;100.00
47726;BME280;33483;48.294;16.388;2022-12-18T05:13:52;101337.66;;;-6.12;100.00
47726;BME280;33483;48.294;16.388;2022-12-18T05:16:19;101336.44;;;-6.15;100.00
47726;BME280;33483;48.294;16.388;2022-12-18T05:18:47;101338.03;;;-6.14;100.00
47726;BME280;33483;48.294;16.388;2022-12-18T05:21:14;101335.63;;;-6.19;100.00
47726;BME280;33483;48.294;16.388;2022-12-18T05:23:41;101337.59;;;-6.16;100.00
47726;BME280;33483;48.294;16.388;2022-12-18T05:26:17;101343.38;;;-6.17;100.00
47726;BME280;33483;48.294;16.388;2022-12-18T05:28:45;101342.22;;;-6.16;100.00
47726;BME280;33483;48.294;16.388;2022-12-18T05:31:13;101342.56;;;-6.21;100.00
47726;BME280;33483;48.294;16.388;2022-12-18T05:33:41;101353.38;;;-6.18;100.00
47726;BME280;33483;48.294;16.388;2022-12-18T05:36:09;101345.31;;;-6.14;100.00
47726;BME280;33483;48.294;16.388;2022-12-18T05:38:38;101351.09;;;-6.16;100.00
47726;BME280;33483;48.294;16.388;2022-12-18T05:41:07;101346.38;;;-6.22;100.00
47726;BME280;33483;48.294;16.388;2022-12-18T05:43:36;101347.06;;;-6.32;100.00
47726;BME280;33483;48.294;16.388;2022-12-18T05:46:06;101351.72;;;-6.29;100.00
47726;BME280;33483;48.294;16.388;2022-12-18T05:48:34;101336.69;;;-6.30;100.00
47726;BME280;33483;48.294;16.388;2022-12-18T05:51:06;101348.63;;;-6.31;100.00
47726;BME280;33483;48.294;16.388;2022-12-18T05:53:37;101357.06;;;-6.36;100.00
47726;BME280;33483;48.294;16.388;2022-12-18T05:56:07;101359.75;;;-6.36;100.00
47726;BME280;33483;48.294;16.388;2022-12-18T05:58:36;101360.88;;;-6.37;100.00
47726;BME280;33483;48.294;16.388;2022-12-18T06:01:13;101345.03;;;-6.42;100.00
47726;BME280;33483;48.294;16.388;2022-12-18T06:03:41;101350.47;;;-6.39;100.00
47726;BME280;33483;48.294;16.388;2022-12-18T06:06:17;101363.53;;;-6.41;100.00
47726;BME280;33483;48.294;16.388;2022-12-18T06:08:45;101365.78;;;-6.46;100.00
47726;BME280;33483;48.294;16.388;2022-12-18T06:11:13;101379.59;;;-6.51;100.00
47726;BME280;33483;48.294;16.388;2022-12-18T06:13:43;101382.63;;;-6.56;100.00
47726;BME280;33483;48.294;16.388;2022-12-18T06:16:11;101383.72;;;-6.61;100.00
47726;BME280;33483;48.294;16.388;2022-12-18T06:18:38;101382.22;;;-6.58;100.00
47726;BME280;33483;48.294;16.388;2022-12-18T06:21:05;101381.78;;;-6.60;100.00
47726;BME280;33483;48.294;16.388;2022-12-18T06:23:35;101393.72;;;-6.61;100.00
47726;BME280;33483;48.294;16.388;2022-12-18T06:26:05;101399.91;;;-6.61;100.00
47726;BME280;33483;48.294;16.388;2022-12-18T06:28:32;101402.22;;;-6.59;100.00
47726;BME280;33483;48.294;16.388;2022-12-18T06:31:00;101406.06;;;-6.60;100.00
47726;BME280;33483;48.294;16.388;2022-12-18T06:33:30;101403.78;;;-6.58;100.00
47726;BME280;33483;48.294;16.388;2022-12-18T06:36:02;101405.34;;;-6.57;100.00
47726;BME280;33483;48.294;16.388;2022-12-18T06:38:32;101404.66;;;-6.51;100.00
47726;BME280;33483;48.294;16.388;2022-12-18T06:40:59;101410.41;;;-6.52;100.00
47726;BME280;33483;48.294;16.388;2022-12-18T06:43:29;101415.38;;;-6.54;100.00
47726;BME280;33483;48.294;16.388;2022-12-18T06:46:00;101408.84;;;-6.53;100.00
47726;BME280;33483;48.294;16.388;2022-12-18T06:48:28;101409.22;;;-6.55;100.00
47726;BME280;33483;48.294;16.388;2022-12-18T06:50:55;101418.09;;;-6.54;100.00
47726;BME280;33483;48.294;16.388;2022-12-18T06:53:22;101426.22;;;-6.51;100.00
47726;BME280;33483;48.294;16.388;2022-12-18T06:55:49;101427.00;;;-6.50;100.00
47726;BME280;33483;48.294;16.388;2022-12-18T06:58:17;101441.75;;;-6.41;100.00
47726;BME280;33483;48.294;16.388;2022-12-18T07:00:44;101430.13;;;-6.45;100.00
47726;BME280;33483;48.294;16.388;2022-12-18T07:03:14;101430.97;;;-6.41;100.00
47726;BME280;33483;48.294;16.388;2022-12-18T07:05:44;101451.03;;;-6.38;100.00
47726;BME280;33483;48.294;16.388;2022-12-18T07:08:11;101454.91;;;-6.36;100.00
47726;BME280;33483;48.294;16.388;2022-12-18T07:10:44;101452.72;;;-6.27;100.00
47726;BME280;33483;48.294;16.388;2022-12-18T07:13:18;101465.09;;;-6.22;100.00
47726;BME280;33483;48.294;16.388;2022-12-18T07:15:45;101468.56;;;-6.22;100.00
47726;BME280;33483;48.294;16.388;2022-12-18T07:18:15;101465.13;;;-6.19;100.00
47726;BME280;33483;48.294;16.388;2022-12-18T07:20:42;101459.06;;;-6.12;100.00
47726;BME280;33483;48.294;16.388;2022-12-18T07:23:09;101466.78;;;-6.11;100.00
47726;BME280;33483;48.294;16.388;2022-12-18T07:25:37;101475.41;;;-5.98;100.00
47726;BME280;33483;48.294;16.388;2022-12-18T07:28:04;101477.50;;;-5.81;100.00
47726;BME280;33483;48.294;16.388;2022-12-18T07:30:31;101487.44;;;-5.52;100.00
47726;BME280;33483;48.294;16.388;2022-12-18T07:32:58;101490.44;;;-5.20;100.00
47726;BME280;33483;48.294;16.388;2022-12-18T07:35:25;101489.94;;;-4.82;100.00
47726;BME280;33483;48.294;16.388;2022-12-18T07:37:53;101499.97;;;-4.18;100.00
47726;BME280;33483;48.294;16.388;2022-12-18T07:40:20;101502.06;;;-3.76;100.00
47726;BME280;33483;48.294;16.388;2022-12-18T07:42:47;101516.47;;;-3.51;100.00
47726;BME280;33483;48.294;16.388;2022-12-18T07:45:14;101524.28;;;-3.14;100.00
47726;BME280;33483;48.294;16.388;2022-12-18T07:47:41;101524.28;;;-2.97;100.00
47726;BME280;33483;48.294;16.388;2022-12-18T07:50:09;101532.41;;;-2.55;100.00
47726;BME280;33483;48.294;16.388;2022-12-18T07:52:36;101529.69;;;-2.62;100.00
47726;BME280;33483;48.294;16.388;2022-12-18T07:55:04;101532.41;;;-2.69;100.00
47726;BME280;33483;48.294;16.388;2022-12-18T07:57:33;101533.53;;;-2.52;100.00
47726;BME280;33483;48.294;16.388;2022-12-18T08:00:17;101545.59;;;-2.71;100.00
47726;BME280;33483;48.294;16.388;2022-12-18T08:02:44;101540.94;;;-2.84;100.00
47726;BME280;33483;48.294;16.388;2022-12-18T08:05:11;101555.25;;;-3.08;100.00
47726;BME280;33483;48.294;16.388;2022-12-18T08:07:40;101556.81;;;-3.18;100.00
47726;BME280;33483;48.294;16.388;2022-12-18T08:10:10;101556.81;;;-3.14;100.00
47726;BME280;33483;48.294;16.388;2022-12-18T08:12:37;101553.69;;;-3.30;100.00
47726;BME280;33483;48.294;16.388;2022-12-18T08:15:05;101551.34;;;-3.32;100.00
47726;BME280;33483;48.294;16.388;2022-12-18T08:17:33;101562.59;;;-3.30;100.00
47726;BME280;33483;48.294;16.388;2022-12-18T08:20:01;101559.09;;;-3.34;100.00
47726;BME280;33483;48.294;16.388;2022-12-18T08:22:34;101552.50;;;-3.29;100.00
47726;BME280;33483;48.294;16.388;2022-12-18T08:25:03;101554.88;;;-3.21;100.00
47726;BME280;33483;48.294;16.388;2022-12-18T08:27:31;101565.72;;;-3.10;100.00
47726;BME280;33483;48.294;16.388;2022-12-18T08:29:58;101556.84;;;-2.86;100.00
47726;BME280;33483;48.294;16.388;2022-12-18T08:32:27;101552.94;;;-2.82;100.00
47726;BME280;33483;48.294;16.388;2022-12-18T08:34:59;101556.84;;;-2.97;100.00
47726;BME280;33483;48.294;16.388;2022-12-18T08:37:26;101559.53;;;-2.93;100.00
47726;BME280;33483;48.294;16.388;2022-12-18T08:39:53;101561.88;;;-2.85;100.00
47726;BME280;33483;48.294;16.388;2022-12-18T08:42:20;101560.69;;;-2.77;100.00
47726;BME280;33483;48.294;16.388;2022-12-18T08:45:06;101559.94;;;-2.88;100.00
47726;BME280;33483;48.294;16.388;2022-12-18T08:47:34;101560.69;;;-2.91;100.00
47726;BME280;33483;48.294;16.388;2022-12-18T08:50:01;101561.47;;;-2.90;100.00
47726;BME280;33483;48.294;16.388;2022-12-18T08:52:31;101564.59;;;-2.81;100.00
47726;BME280;33483;48.294;16.388;2022-12-18T08:54:59;101566.13;;;-2.73;100.00
47726;BME280;33483;48.294;16.388;2022-12-18T08:57:27;101577.75;;;-2.69;100.00
47726;BME280;33483;48.294;16.388;2022-12-18T08:59:54;101567.28;;;-2.53;100.00
47726;BME280;33483;48.294;16.388;2022-12-18T09:02:24;101566.91;;;-2.48;100.00
47726;BME280;33483;48.294;16.388;2022-12-18T09:04:52;101569.22;;;-2.43;100.00
47726;BME280;33483;48.294;16.388;2022-12-18T09:07:23;101581.59;;;-2.39;100.00
47726;BME280;33483;48.294;16.388;2022-12-18T09:09:51;101582.41;;;-2.49;100.00
47726;BME280;33483;48.294;16.388;2022-12-18T09:12:18;101576.97;;;-2.38;100.00
47726;BME280;33483;48.294;16.388;2022-12-18T09:14:46;101586.28;;;-2.46;100.00
47726;BME280;33483;48.294;16.388;2022-12-18T09:17:13;101592.84;;;-2.40;100.00
47726;BME280;33483;48.294;16.388;2022-12-18T09:19:43;101589.34;;;-2.34;100.00
47726;BME280;33483;48.294;16.388;2022-12-18T09:22:11;101589.00;;;-2.36;100.00
47726;BME280;33483;48.294;16.388;2022-12-18T09:24:38;101595.56;;;-2.30;100.00
47726;BME280;33483;48.294;16.388;2022-12-18T09:27:05;101602.56;;;-2.28;100.00
47726;BME280;33483;48.294;16.388;2022-12-18T09:29:33;101602.91;;;-2.23;100.00
47726;BME280;33483;48.294;16.388;2022-12-18T09:32:00;101604.09;;;-2.28;100.00
47726;BME280;33483;48.294;16.388;2022-12-18T09:34:30;101599.44;;;-2.23;100.00
47726;BME280;33483;48.294;16.388;2022-12-18T09:36:57;101591.69;;;-2.21;100.00
47726;BME280;33483;48.294;16.388;2022-12-18T09:39:26;101583.91;;;-2.16;100.00
47726;BME280;33483;48.294;16.388;2022-12-18T09:41:55;101578.47;;;-2.12;100.00
47726;BME280;33483;48.294;16.388;2022-12-18T09:44:41;101590.91;;;-2.25;100.00
47726;BME280;33483;48.294;16.388;2022-12-18T09:49:55;101580.84;;;-2.36;100.00
47726;BME280;33483;48.294;16.388;2022-12-18T09:52:27;101575.44;;;-2.50;100.00
47726;BME280;33483;48.294;16.388;2022-12-18T09:57:49;101566.91;;;-2.45;100.00
47726;BME280;33483;48.294;16.388;2022-12-18T10:00:20;101576.97;;;-2.49;100.00
47726;BME280;33483;48.294;16.388;2022-12-18T10:02:53;101575.41;;;-2.32;100.00
47726;BME280;33483;48.294;16.388;2022-12-18T10:06:21;101583.16;;;-2.31;100.00
47726;BME280;33483;48.294;16.388;2022-12-18T10:24:59;101559.81;;;-2.03;100.00
47726;BME280;33483;48.294;16.388;2022-12-18T10:27:28;101566.81;;;-2.02;100.00
47726;BME280;33483;48.294;16.388;2022-12-18T10:29:57;101570.66;;;-1.96;100.00
47726;BME280;33483;48.294;16.388;2022-12-18T10:32:28;101557.50;;;-2.05;100.00
47726;BME280;33483;48.294;16.388;2022-12-18T10:34:57;101560.19;;;-1.98;100.00
47726;BME280;33483;48.294;16.388;2022-12-18T10:37:29;101554.41;;;-2.10;100.00
47726;BME280;33483;48.294;16.388;2022-12-18T10:40:10;101554.38;;;-2.03;100.00
47726;BME280;33483;48.294;16.388;2022-12-18T10:42:59;101557.53;;;-2.15;100.00
47726;BME280;33483;48.294;16.388;2022-12-18T10:45:29;101556.78;;;-2.34;100.00
47726;BME280;33483;48.294;16.388;2022-12-18T10:47:58;101550.59;;;-2.41;100.00
47726;BME280;33483;48.294;16.388;2022-12-18T10:50:33;101549.41;;;-2.40;100.00
47726;BME280;33483;48.294;16.388;2022-12-18T10:53:24;101536.63;;;-2.40;100.00
47726;BME280;33483;48.294;16.388;2022-12-18T10:55:54;101532.38;;;-2.44;100.00
47726;BME280;33483;48.294;16.388;2022-12-18T10:58:25;101536.63;;;-2.40;100.00
47726;BME280;33483;48.294;16.388;2022-12-18T11:01:19;101542.03;;;-2.25;100.00
47726;BME280;33483;48.294;16.388;2022-12-18T11:04:08;101541.28;;;-2.37;100.00
47726;BME280;33483;48.294;16.388;2022-12-18T11:06:52;101540.50;;;-2.37;100.00
47726;BME280;33483;48.294;16.388;2022-12-18T11:09:23;101533.09;;;-2.30;100.00
47726;BME280;33483;48.294;16.388;2022-12-18T11:11:52;101539.72;;;-2.31;100.00
47726;BME280;33483;48.294;16.388;2022-12-18T11:16:56;101522.25;;;-2.30;100.00
47726;BME280;33483;48.294;16.388;2022-12-18T11:19:52;101530.00;;;-2.28;100.00
47726;BME280;33483;48.294;16.388;2022-12-18T11:22:30;101528.03;;;-2.17;100.00
47726;BME280;33483;48.294;16.388;2022-12-18T11:25:41;101531.88;;;-2.11;100.00
47726;BME280;33483;48.294;16.388;2022-12-18T11:31:21;101548.16;;;-2.04;100.00
47726;BME280;33483;48.294;16.388;2022-12-18T11:36:52;101533.41;;;-1.99;100.00
47726;BME280;33483;48.294;16.388;2022-12-18T11:39:36;101529.91;;;-2.00;100.00
47726;BME280;33483;48.294;16.388;2022-12-18T11:42:18;101533.44;;;-2.10;100.00
47726;BME280;33483;48.294;16.388;2022-12-18T11:44:50;101523.38;;;-2.16;100.00
47726;BME280;33483;48.294;16.388;2022-12-18T11:47:31;101526.13;;;-2.27;100.00
47726;BME280;33483;48.294;16.388;2022-12-18T11:50:12;101528.09;;;-2.42;100.00
47726;BME280;33483;48.294;16.388;2022-12-18T11:52:42;101510.25;;;-2.36;100.00
47726;BME280;33483;48.294;16.388;2022-12-18T12:00:25;101511.78;;;-2.35;100.00
47726;BME280;33483;48.294;16.388;2022-12-18T12:34:20;101518.38;;;-2.21;100.00
47726;BME280;33483;48.294;16.388;2022-12-18T12:37:15;101507.50;;;-2.21;100.00
47726;BME280;33483;48.294;16.388;2022-12-18T12:39:47;101500.91;;;-2.20;100.00
47726;BME280;33483;48.294;16.388;2022-12-18T12:42:42;101498.97;;;-2.27;100.00
47726;BME280;33483;48.294;16.388;2022-12-18T12:48:16;101503.22;;;-2.22;100.00
47726;BME280;33483;48.294;16.388;2022-12-18T12:50:46;101509.06;;;-2.35;100.00
47726;BME280;33483;48.294;16.388;2022-12-18T12:53:25;101508.72;;;-2.47;100.00
47726;BME280;33483;48.294;16.388;2022-12-18T12:55:54;101504.09;;;-2.71;100.00
47726;BME280;33483;48.294;16.388;2022-12-18T12:58:39;101501.00;;;-2.70;100.00
47726;BME280;33483;48.294;16.388;2022-12-18T13:09:10;101496.72;;;-2.60;100.00
47726;BME280;33483;48.294;16.388;2022-12-18T13:11:39;101498.69;;;-2.68;100.00
47726;BME280;33483;48.294;16.388;2022-12-18T13:14:35;101505.28;;;-2.69;100.00
47726;BME280;33483;48.294;16.388;2022-12-18T13:17:37;101513.81;;;-2.74;100.00
47726;BME280;33483;48.294;16.388;2022-12-18T13:20:09;101515.75;;;-2.71;100.00
47726;BME280;33483;48.294;16.388;2022-12-18T13:22:42;101516.88;;;-2.68;100.00
47726;BME280;33483;48.294;16.388;2022-12-18T13:25:43;101515.75;;;-2.71;100.00
47726;BME280;33483;48.294;16.388;2022-12-18T13:28:15;101524.63;;;-2.63;100.00
47726;BME280;33483;48.294;16.388;2022-12-18T13:30:50;101524.25;;;-2.58;100.00
47726;BME280;33483;48.294;16.388;2022-12-18T13:38:37;101515.72;;;-2.57;100.00
47726;BME280;33483;48.294;16.388;2022-12-18T13:43:45;101518.44;;;-2.67;100.00
47726;BME280;33483;48.294;16.388;2022-12-18T13:46:19;101530.47;;;-2.72;100.00
47726;BME280;33483;48.294;16.388;2022-12-18T13:51:48;101528.13;;;-2.73;100.00
47726;BME280;33483;48.294;16.388;2022-12-18T13:54:42;101533.56;;;-2.77;100.00
47726;BME280;33483;48.294;16.388;2022-12-18T13:59:52;101530.84;;;-2.73;100.00
47726;BME280;33483;48.294;16.388;2022-12-18T14:02:25;101532.03;;;-2.71;100.00
47726;BME280;33483;48.294;16.388;2022-12-18T14:04:53;101532.78;;;-2.67;100.00
47726;BME280;33483;48.294;16.388;2022-12-18T14:07:29;101533.56;;;-2.66;100.00
47726;BME280;33483;48.294;16.388;2022-12-18T14:10:13;101539.00;;;-2.66;100.00
47726;BME280;33483;48.294;16.388;2022-12-18T14:13:06;101537.44;;;-2.74;100.00
47726;BME280;33483;48.294;16.388;2022-12-18T14:15:40;101533.56;;;-2.73;100.00
47726;BME280;33483;48.294;16.388;2022-12-18T14:20:56;101555.28;;;-2.73;100.00
47726;BME280;33483;48.294;16.388;2022-12-18T14:23:36;101549.84;;;-2.73;100.00
47726;BME280;33483;48.294;16.388;2022-12-18T14:26:24;101541.31;;;-2.79;100.00
47726;BME280;33483;48.294;16.388;2022-12-18T14:29:16;101546.38;;;-2.74;100.00
47726;BME280;33483;48.294;16.388;2022-12-18T14:31:45;101549.84;;;-2.77;100.00
47726;BME280;33483;48.294;16.388;2022-12-18T14:34:16;101542.88;;;-2.78;100.00
47726;BME280;33483;48.294;16.388;2022-12-18T14:36:52;101556.06;;;-2.80;100.00
47726;BME280;33483;48.294;16.388;2022-12-18T14:39:20;101552.16;;;-2.72;100.00
47726;BME280;33483;48.294;16.388;2022-12-18T14:41:51;101545.19;;;-2.73;100.00
47726;BME280;33483;48.294;16.388;2022-12-18T14:44:20;101561.47;;;-2.76;100.00
47726;BME280;33483;48.294;16.388;2022-12-18T14:46:50;101553.72;;;-2.81;100.00
47726;BME280;33483;48.294;16.388;2022-12-18T14:49:29;101559.94;;;-2.81;100.00
47726;BME280;33483;48.294;16.388;2022-12-18T14:52:05;101568.09;;;-2.81;100.00
47726;BME280;33483;48.294;16.388;2022-12-18T14:54:34;101562.25;;;-2.90;100.00
47726;BME280;33483;48.294;16.388;2022-12-18T14:57:06;101563.41;;;-2.91;100.00
47726;BME280;33483;48.294;16.388;2022-12-18T14:59:40;101565.34;;;-2.95;100.00
47726;BME280;33483;48.294;16.388;2022-12-18T15:05:03;101567.69;;;-2.93;100.00